Flight Track Log - Related Links

Times and Time Zones

All times are in EDT time to prevent confusion due to time zone crossing. See the SWA2770 flight status page for this flight to view local times or setup timezone preferences in your user account.

Time Position Orientation Groundspeed Altitude Reporting Facility
EDT Latitude Longitude Course Direction KTS MPH feet Rate Location/Type
Sat 10:29:33 PM 33.6167 -117.9000 203° Southwest 159 183 2,800  Level Southern California TRACON
Sat 10:30:16 PM 33.5900 -117.8975 176° South 155 178 3,700 2,019 Climbing Los Angeles Center
Sat 10:31:17 PM 33.5283 -117.9286 203° Southwest 238 274 6,300 3,073 Climbing Los Angeles Center
Sat 10:32:19 PM 33.4689 -117.9878 220° Southwest 284 327 10,000 3,220 Climbing Los Angeles Center
Sat 10:33:20 PM 33.4444 -118.1094 256° West 305 351 12,900 2,976 Climbing Los Angeles Center
Sat 10:34:22 PM 33.4325 -118.2242 263° West 332 382 16,100 2,976 Climbing Los Angeles Center
Sat 10:35:23 PM 33.4986 -118.3200 310° West 370 426 19,000 2,829 Climbing Los Angeles Center
Sat 10:36:25 PM 33.5686 -118.4203 310° West 382 440 21,900 2,806 Climbing Los Angeles Center
Sat 10:37:27 PM 33.6403 -118.5228 310° West 395 455 24,800 2,537 Climbing Los Angeles Center
Sat 10:38:28 PM 33.7128 -118.6250 310° West 393 452 27,100 2,098 Climbing Los Angeles Center
Sat 10:39:30 PM 33.7864 -118.7294 310° West 402 463 29,100 2,195 Climbing Los Angeles Center
Sat 10:40:31 PM 33.8611 -118.8353 310° West 409 471 31,600 2,341 Climbing Los Angeles Center
Sat 10:41:33 PM 33.9394 -118.9322 314° West 408 470 33,900 1,902 Climbing Los Angeles Center
Sat 10:42:34 PM 34.0208 -119.0236 317° Northwest 404 465 35,500 1,024 Climbing Los Angeles Center
Sat 10:43:36 PM 34.1011 -119.1186 316° Northwest 403 464 36,000 244 Climbing Los Angeles Center
Sat 10:44:37 PM 34.1819 -119.2136 316° Northwest 403 464 36,000  Level Los Angeles Center
Sat 10:45:39 PM 34.2786 -119.3264 316° Northwest 403 464 36,000  Level Los Angeles Center
Sat 10:46:41 PM 34.3583 -119.4203 316° Northwest 403 464 36,000  Level Los Angeles Center
Sat 10:47:42 PM 34.4378 -119.5158 315° West 403 464 36,000  Level Los Angeles Center
Sat 10:48:44 PM 34.5167 -119.6100 315° West 402 463 36,000  Level Los Angeles Center
Sat 10:49:45 PM 34.5972 -119.7028 317° Northwest 402 463 36,000  Level Los Angeles Center
Sat 10:50:47 PM 34.6883 -119.8111 316° Northwest 400 460 36,000  Level Los Angeles Center
Sat 10:51:49 PM 34.7669 -119.9056 315° West 400 460 36,000  Level Los Angeles Center
Sat 10:52:50 PM 34.8464 -120.0000 316° Northwest 400 460 36,000  Level Los Angeles Center
Sat 10:53:52 PM 34.9253 -120.0947 315° West 400 460 36,000  Level Los Angeles Center
Sat 10:54:54 PM 35.0075 -120.1925 316° Northwest 401 461 36,000  Level Los Angeles Center
Sat 10:55:55 PM 35.0864 -120.2894 315° West 404 465 36,000  Level Los Angeles Center
Sat 10:56:57 PM 35.1656 -120.3858 315° West 405 466 36,000  Level Los Angeles Center
Sat 10:57:59 PM 35.2442 -120.4789 316° Northwest 400 460 36,000  Level Los Angeles Center
Sat 10:59:00 PM 35.3236 -120.5781 314° West 415 478 36,000  Level Los Angeles Center
Sat 11:00:02 PM 35.4189 -120.6958 315° West 411 473 36,000  Level Los Angeles Center
Sat 11:01:03 PM 35.5058 -120.7864 320° Northwest 417 480 36,000  Level Los Angeles Center
Sat 11:02:05 PM 35.5969 -120.8711 323° Northwest 414 476 36,000  Level Los Angeles Center
Sat 11:03:07 PM 35.6964 -120.9631 323° Northwest 414 476 36,000  Level Los Angeles Center
Sat 11:04:08 PM 35.7878 -121.0478 323° Northwest 412 474 36,000  Level Los Angeles Center
Sat 11:05:10 PM 35.8786 -121.1325 323° Northwest 412 474 36,000 -316 Level Los Angeles Center
Sat 11:06:21 PM 35.9858 -121.2353 322° Northwest 408 470 35,300 -1,364 Descending Oakland Center
Sat 11:07:22 PM 36.0722 -121.3183 322° Northwest 398 458 33,000 -2,115 Descending Oakland Center
Sat 11:08:23 PM 36.1586 -121.3961 324° Northwest 388 447 31,000 -1,918 Descending Oakland Center
Sat 11:09:24 PM 36.2381 -121.4739 322° Northwest 371 427 29,100 -1,820 Descending Oakland Center
Sat 11:10:25 PM 36.3164 -121.5500 322° Northwest 360 414 27,300 -1,770 Descending Oakland Center
Sat 11:11:26 PM 36.3928 -121.6236 322° Northwest 352 405 25,500 -1,623 Descending Oakland Center
Sat 11:12:27 PM 36.4658 -121.6939 322° Northwest 338 389 24,000 -1,377 Descending Oakland Center
Sat 11:13:28 PM 36.5414 -121.7628 324° Northwest 338 389 22,700 -1,623 Descending Oakland Center
Sat 11:14:29 PM 36.6242 -121.8481 320° Northwest 335 386 20,700 -1,820 Descending Oakland Center
Sat 11:15:30 PM 36.6936 -121.9156 322° Northwest 323 372 19,000 -1,672 Descending Oakland Center
Sat 11:16:31 PM 36.7667 -121.9744 327° Northwest 317 365 17,300 -1,736 Descending Oakland Center
Sat 11:17:31 PM 36.8525 -121.9928 350° North 312 359 15,500 -1,686 Descending Oakland Center
Sat 11:18:32 PM 36.9361 -122.0142 348° North 311 358 13,900 -1,574 Descending Oakland Center
Sat 11:19:33 PM 37.0189 -122.0367 348° North 308 354 12,300 -1,574 Descending Oakland Center
Sat 11:20:34 PM 37.0994 -122.0586 348° North 303 349 10,700 -1,230 Descending Oakland Center
Sat 11:21:35 PM 37.1767 -122.0792 348° North 288 331 9,800 -1,426 Descending Oakland Center
Sat 11:22:36 PM 37.2525 -122.0981 349° North 278 320 7,800 -1,623 Descending Oakland Center
Sat 11:23:37 PM 37.3269 -122.1189 347° North 278 320 6,500 -1,033 Descending Oakland Center
Sat 11:24:38 PM 37.3919 -122.1361 348° North 242 278 5,700 -1,033 Descending Oakland Center
Sat 11:25:39 PM 37.4664 -122.1553 348° North 232 267 4,400 -984 Descending Oakland Center
Sat 11:26:40 PM 37.5178 -122.1739 344° North 203 234 3,700 -787 Descending Oakland Center
Sat 11:27:41 PM 37.5533 -122.2158 317° Northwest 186 214 2,800 -992 Descending Oakland Center
Sat 11:28:41 PM 37.5708 -122.2628 295° West 163 188 1,700 -992 Descending Oakland Center
Sat 11:29:42 PM 37.5897 -122.3069 298° West 151 174 800 -738 Descending Oakland Center
Sat 11:30:43 PM 37.6064 -122.3469 298° West 140 161 200 -590 Descending Oakland Center
Sat 11:33:00 PM 37.6167 -122.3667 322° Northwest  Level FlightAware Approximate

Login

Don't have an account? Register now (free) for customized features, flight alerts, and more!